Time;durP1;ratioP1;P1;durP2;ratioP2;P2;SDS_P1;SDS_P2;PMS_P1;PMS_P2;Temp;Humidity;BMP_temperature;BMP_pressure;BME280_temperature;BME280_humidity;BME280_pressure;Samples;Min_cycle;Max_cycle;Signal;HPM_P1;HPM_P2
2022/01/17 00:01:10;;;;;;;17.05;2.90;;;5.80;99.90;;;;;;4990678;28;20060;-60
2022/01/17 00:03:36;;;;;;;13.98;3.42;;;5.90;99.90;;;;;;4990609;28;20395;-61
2022/01/17 00:06:01;;;;;;;14.27;2.17;;;5.80;99.90;;;;;;4989409;28;20125;-60
2022/01/17 00:08:27;;;;;;;16.20;3.70;;;5.80;99.90;;;;;;4990521;28;20054;-60
2022/01/17 00:10:53;;;;;;;20.00;3.13;;;5.80;99.90;;;;;;4989984;28;20069;-61
2022/01/17 00:13:27;;;;;;;21.95;3.92;;;5.80;99.90;;;;;;4990225;28;20117;-61
2022/01/17 00:15:58;;;;;;;16.48;3.35;;;5.90;99.90;;;;;;4990577;28;20045;-60
2022/01/17 00:18:41;;;;;;;12.55;2.85;;;5.90;99.90;;;;;;4990910;28;20155;-60
2022/01/17 00:21:06;;;;;;;18.25;2.35;;;5.90;99.90;;;;;;4990344;28;20050;-61
2022/01/17 00:23:33;;;;;;;24.05;3.47;;;5.90;99.90;;;;;;4990546;28;20053;-60
2022/01/17 00:25:59;;;;;;;15.55;2.70;;;5.90;99.90;;;;;;4990286;28;20500;-61
2022/01/17 00:28:25;;;;;;;12.98;2.97;;;5.90;99.90;;;;;;4990191;28;20170;-61
2022/01/17 00:30:50;;;;;;;17.00;2.63;;;6.00;99.90;;;;;;4990144;28;20472;-60
2022/01/17 00:33:16;;;;;;;22.40;3.67;;;6.00;99.90;;;;;;4989010;28;20092;-61
2022/01/17 00:35:42;;;;;;;18.80;2.50;;;6.00;99.90;;;;;;4990301;28;20042;-60
2022/01/17 00:38:08;;;;;;;20.67;2.97;;;5.90;99.90;;;;;;4990217;28;20035;-61
2022/01/17 00:40:34;;;;;;;16.38;3.17;;;5.80;99.90;;;;;;4988870;28;20499;-60
2022/01/17 00:42:59;;;;;;;17.83;2.83;;;5.80;99.90;;;;;;4989962;28;20126;-60
2022/01/17 00:45:27;;;;;;;15.95;3.55;;;5.80;99.90;;;;;;4990054;28;20069;-61
2022/01/17 00:47:58;;;;;;;16.30;3.28;;;5.80;99.90;;;;;;4990184;28;20038;-60
2022/01/17 00:50:25;;;;;;;19.02;3.47;;;5.80;99.90;;;;;;4990117;28;20045;-60
2022/01/17 00:52:51;;;;;;;18.27;2.70;;;5.80;99.90;;;;;;4989632;28;20546;-61
2022/01/17 00:55:17;;;;;;;16.27;3.25;;;5.70;99.90;;;;;;4989997;28;20121;-60
2022/01/17 00:57:43;;;;;;;22.35;3.75;;;5.80;99.90;;;;;;4989831;28;20109;-60
2022/01/17 01:00:10;;;;;;;16.58;2.95;;;5.70;99.90;;;;;;4990050;28;20485;-61
2022/01/17 01:02:36;;;;;;;22.13;3.13;;;5.60;99.90;;;;;;4989992;28;20042;-60
2022/01/17 01:05:03;;;;;;;15.63;2.65;;;5.60;99.90;;;;;;4989904;28;20075;-60
2022/01/17 01:07:29;;;;;;;17.52;2.47;;;5.60;99.90;;;;;;4989938;28;20050;-60
2022/01/17 01:10:04;;;;;;;21.25;3.92;;;5.60;99.90;;;;;;4989760;28;20049;-60
2022/01/17 01:12:30;;;;;;;16.85;3.30;;;5.50;99.90;;;;;;4989657;28;20044;-61
2022/01/17 01:14:56;;;;;;;22.10;3.88;;;5.50;99.90;;;;;;4988453;28;20485;-60
2022/01/17 01:17:34;;;;;;;15.90;3.13;;;5.50;99.90;;;;;;4989601;28;20118;-60
2022/01/17 01:20:22;;;;;;;22.33;3.50;;;5.60;99.90;;;;;;4990025;28;20602;-60
2022/01/17 01:28:17;;;;;;;24.27;3.85;;;5.60;99.90;;;;;;4993098;28;20051;-60
2022/01/17 01:30:47;;;;;;;21.10;3.55;;;5.60;99.90;;;;;;4993395;28;20061;-60
2022/01/17 01:33:19;;;;;;;20.85;3.35;;;5.60;99.90;;;;;;4992898;28;20043;-60
2022/01/17 01:35:46;;;;;;;19.20;3.33;;;5.60;99.90;;;;;;4993299;28;20127;-61
2022/01/17 01:38:12;;;;;;;18.30;4.47;;;5.50;99.90;;;;;;4993406;28;20046;-60
2022/01/17 01:40:38;;;;;;;12.68;2.67;;;5.60;99.90;;;;;;4993089;28;20053;-60
2022/01/17 01:43:04;;;;;;;18.13;2.92;;;5.50;99.90;;;;;;4993010;28;20035;-60
2022/01/17 01:45:30;;;;;;;20.23;4.32;;;5.50;99.90;;;;;;4992581;28;20045;-60
2022/01/17 01:47:57;;;;;;;17.15;3.42;;;5.50;99.90;;;;;;4992698;28;20122;-60
2022/01/17 01:50:23;;;;;;;15.25;2.33;;;5.50;99.90;;;;;;4992805;28;20050;-60
2022/01/17 01:52:49;;;;;;;18.58;2.58;;;5.50;99.90;;;;;;4992516;28;20051;-59
2022/01/17 01:55:18;;;;;;;27.23;2.83;;;5.50;99.90;;;;;;4992879;28;20507;-60
2022/01/17 01:57:45;;;;;;;18.70;3.10;;;5.50;99.90;;;;;;4992585;28;20078;-60
2022/01/17 02:00:13;;;;;;;18.00;2.28;;;5.50;99.90;;;;;;4992515;28;20076;-60
2022/01/17 02:02:39;;;;;;;12.63;2.55;;;5.40;99.90;;;;;;4992751;28;20054;-60
2022/01/17 02:05:05;;;;;;;21.23;2.92;;;5.50;99.90;;;;;;4992688;28;20049;-61
2022/01/17 02:07:31;;;;;;;16.40;2.30;;;5.40;99.90;;;;;;4992387;28;20128;-60
2022/01/17 02:09:57;;;;;;;17.15;2.50;;;5.40;99.90;;;;;;4992405;28;20084;-60
2022/01/17 02:12:25;;;;;;;22.58;3.78;;;5.40;99.90;;;;;;4992365;28;20078;-60
2022/01/17 02:14:53;;;;;;;24.70;3.47;;;5.30;99.90;;;;;;4992416;28;20076;-60
2022/01/17 02:17:21;;;;;;;24.90;3.67;;;5.30;99.90;;;;;;4992640;28;20046;-60
2022/01/17 02:19:56;;;;;;;18.38;3.13;;;5.30;99.90;;;;;;4992452;28;20042;-61
2022/01/17 02:22:22;;;;;;;11.93;2.88;;;5.30;99.90;;;;;;4992592;28;20039;-60
2022/01/17 02:24:47;;;;;;;15.27;2.72;;;5.30;99.90;;;;;;4992380;28;20412;-61
2022/01/17 02:27:13;;;;;;;16.58;2.53;;;5.30;99.90;;;;;;4992110;28;20420;-60
2022/01/17 02:29:39;;;;;;;18.52;2.60;;;5.30;99.90;;;;;;4992664;28;20054;-60
2022/01/17 02:32:05;;;;;;;26.30;4.45;;;5.30;99.90;;;;;;4992526;28;20042;-60
2022/01/17 02:34:30;;;;;;;21.55;2.92;;;5.30;99.90;;;;;;4991342;28;20039;-60
2022/01/17 02:36:56;;;;;;;15.73;3.13;;;5.20;99.90;;;;;;4992019;28;20424;-60
2022/01/17 02:39:22;;;;;;;21.38;3.20;;;5.30;99.90;;;;;;4992005;28;20409;-60
2022/01/17 02:41:49;;;;;;;17.65;3.00;;;5.40;99.90;;;;;;4991782;28;20395;-61
2022/01/17 02:44:16;;;;;;;21.10;3.03;;;5.40;99.90;;;;;;4992056;28;20047;-61
2022/01/17 02:46:41;;;;;;;13.73;3.00;;;5.40;99.90;;;;;;4991940;28;20054;-60
2022/01/17 02:49:08;;;;;;;20.40;3.10;;;5.50;99.90;;;;;;4991979;28;20042;-60
2022/01/17 02:51:34;;;;;;;25.13;3.10;;;5.50;99.90;;;;;;4991956;28;20038;-60
2022/01/17 02:54:00;;;;;;;21.55;3.35;;;5.50;99.90;;;;;;4991676;28;20082;-60
2022/01/17 02:56:26;;;;;;;18.67;3.60;;;5.50;99.90;;;;;;4991682;28;20073;-61
2022/01/17 02:58:52;;;;;;;18.73;3.10;;;5.50;99.90;;;;;;4991941;28;20099;-60
2022/01/17 03:01:22;;;;;;;20.75;3.38;;;5.50;99.90;;;;;;4991740;28;20052;-60
2022/01/17 03:03:47;;;;;;;;;;;5.60;99.90;;;;;;4992060;28;20046;-61
2022/01/17 03:06:14;;;;;;;16.10;2.50;;;5.50;99.90;;;;;;4991605;28;20265;-61
2022/01/17 03:08:42;;;;;;;24.23;4.10;;;5.60;99.90;;;;;;4991446;28;20393;-61
2022/01/17 03:11:11;;;;;;;18.65;3.60;;;5.70;99.90;;;;;;4991291;28;20491;-60
2022/01/17 03:13:38;;;;;;;18.38;2.75;;;5.60;99.90;;;;;;4991671;28;20042;-60
2022/01/17 03:16:09;;;;;;;14.43;2.95;;;5.60;99.90;;;;;;4991558;28;20119;-60
2022/01/17 03:18:37;;;;;;;18.05;2.83;;;5.60;99.90;;;;;;4991911;28;20131;-61
2022/01/17 03:21:03;;;;;;;17.83;2.90;;;5.60;99.90;;;;;;4991588;28;20542;-61
2022/01/17 03:23:29;;;;;;;22.13;2.72;;;5.70;99.90;;;;;;4991195;28;20560;-60
2022/01/17 03:25:56;;;;;;;17.00;2.60;;;5.70;99.90;;;;;;4991643;28;20121;-60
2022/01/17 03:28:22;;;;;;;17.13;3.13;;;5.70;99.90;;;;;;4991257;28;20099;-60
2022/01/17 03:30:47;;;;;;;20.48;3.92;;;5.70;99.90;;;;;;4991336;28;20038;-60
2022/01/17 03:33:17;;;;;;;20.83;2.75;;;5.70;99.90;;;;;;4991242;28;20061;-61
2022/01/17 03:35:44;;;;;;;19.80;3.30;;;5.80;99.90;;;;;;4991106;28;20043;-60
2022/01/17 03:38:12;;;;;;;22.90;3.50;;;5.70;99.90;;;;;;4991177;28;20046;-61
2022/01/17 03:40:38;;;;;;;19.15;2.78;;;5.80;99.90;;;;;;4991344;28;20057;-60
2022/01/17 03:43:05;;;;;;;16.00;3.38;;;5.80;99.90;;;;;;4991230;28;20034;-60
2022/01/17 03:45:31;;;;;;;14.40;3.00;;;5.80;99.90;;;;;;4991143;28;20049;-60
2022/01/17 03:47:57;;;;;;;19.55;2.88;;;5.80;99.90;;;;;;4990846;28;20517;-60
2022/01/17 03:50:24;;;;;;;22.92;2.88;;;5.80;99.90;;;;;;4990957;28;20034;-60
2022/01/17 03:52:50;;;;;;;17.40;2.72;;;5.80;99.90;;;;;;4990742;28;20050;-60
2022/01/17 03:55:20;;;;;;;17.85;2.60;;;5.80;99.90;;;;;;4991178;28;20121;-61
2022/01/17 03:57:46;;;;;;;18.95;2.80;;;5.90;99.90;;;;;;4990909;28;20515;-61
2022/01/17 04:00:22;;;;;;;10.23;2.20;;;5.90;99.90;;;;;;4990835;28;20042;-60
2022/01/17 04:02:49;;;;;;;16.40;2.30;;;5.80;99.90;;;;;;4990801;28;20373;-61
2022/01/17 04:05:15;;;;;;;16.27;2.75;;;5.80;99.90;;;;;;4990778;28;20042;-61
2022/01/17 04:07:41;;;;;;;11.68;2.58;;;5.80;99.90;;;;;;4990734;28;20469;-60
2022/01/17 04:10:07;;;;;;;11.77;2.33;;;5.80;99.90;;;;;;4991078;28;20050;-61
2022/01/17 04:12:32;;;;;;;15.30;2.40;;;5.80;99.90;;;;;;4991209;28;20058;-60
2022/01/17 04:14:58;;;;;;;18.25;2.40;;;5.80;99.90;;;;;;4990719;28;20107;-60
2022/01/17 04:17:27;;;;;;;13.32;2.35;;;5.80;99.90;;;;;;4990663;28;20035;-60
2022/01/17 04:20:03;;;;;;;12.43;2.42;;;5.80;99.90;;;;;;4990650;28;20042;-60
2022/01/17 04:22:38;;;;;;;16.30;2.75;;;5.80;99.90;;;;;;4990817;28;20085;-61
2022/01/17 04:25:04;;;;;;;14.20;2.50;;;5.90;99.90;;;;;;4990330;28;20042;-60
2022/01/17 04:27:30;;;;;;;16.05;3.25;;;5.90;99.90;;;;;;4990601;28;20030;-60
2022/01/17 04:29:56;;;;;;;20.30;2.80;;;5.90;99.90;;;;;;4990361;28;20041;-60
2022/01/17 04:32:21;;;;;;;13.68;2.65;;;6.00;99.90;;;;;;4990145;28;20523;-61
2022/01/17 04:34:47;;;;;;;19.05;3.63;;;6.00;99.90;;;;;;4990365;28;20041;-60
2022/01/17 04:37:13;;;;;;;15.10;2.85;;;6.00;99.90;;;;;;4990188;28;20035;-60
2022/01/17 04:39:39;;;;;;;20.35;3.80;;;6.00;99.90;;;;;;4990299;28;20049;-61
2022/01/17 04:42:11;;;;;;;15.15;3.13;;;6.00;99.90;;;;;;4990211;28;20544;-60
2022/01/17 04:47:22;;;;;;;19.42;2.47;;;6.10;99.90;;;;;;4990223;28;20129;-61
2022/01/17 04:49:47;;;;;;;12.82;2.70;;;6.10;99.90;;;;;;4990370;28;20129;-61
2022/01/17 04:52:14;;;;;;;17.95;2.97;;;6.20;99.90;;;;;;4990063;28;20041;-60
2022/01/17 04:54:42;;;;;;;18.02;3.35;;;6.20;99.90;;;;;;4988700;28;20038;-61
2022/01/17 04:57:10;;;;;;;22.35;3.75;;;6.20;99.90;;;;;;4989404;28;20477;-61
2022/01/17 04:59:39;;;;;;;20.33;3.47;;;6.30;99.90;;;;;;4990066;28;20163;-61
2022/01/17 05:02:06;;;;;;;18.73;2.63;;;6.30;99.90;;;;;;4989958;28;20050;-61
2022/01/17 05:04:32;;;;;;;23.02;3.53;;;6.30;99.90;;;;;;4989861;28;20046;-60
2022/01/17 05:06:58;;;;;;;8.93;2.13;;;6.30;99.90;;;;;;4989718;28;20508;-61
2022/01/17 05:09:24;;;;;;;19.98;3.20;;;6.30;99.90;;;;;;4989751;28;20058;-61
2022/01/17 05:11:49;;;;;;;14.07;2.33;;;6.40;99.90;;;;;;4989998;28;20049;-60
2022/01/17 05:14:15;;;;;;;22.92;3.08;;;6.40;99.90;;;;;;4989707;28;20045;-60
2022/01/17 05:16:49;;;;;;;15.23;3.42;;;6.40;99.90;;;;;;4989596;28;20034;-61
2022/01/17 05:21:59;;;;;;;20.48;3.50;;;6.40;99.90;;;;;;4989859;28;20050;-60
2022/01/17 05:24:24;;;;;;;24.90;3.90;;;6.40;99.90;;;;;;4989449;28;20045;-60
2022/01/17 05:26:50;;;;;;;21.80;3.38;;;6.40;99.90;;;;;;4988365;28;20547;-60
2022/01/17 05:29:15;;;;;;;16.65;3.28;;;6.40;99.90;;;;;;4989535;28;20046;-61
2022/01/17 05:31:41;;;;;;;18.95;3.15;;;6.40;99.90;;;;;;4989464;28;20047;-60
2022/01/17 05:34:07;;;;;;;20.10;3.10;;;6.40;99.90;;;;;;4989737;28;20050;-60
2022/01/17 05:36:32;;;;;;;25.70;3.10;;;6.40;99.90;;;;;;4989786;28;20540;-60
2022/01/17 05:38:58;;;;;;;22.00;4.75;;;6.40;99.90;;;;;;4989358;28;20455;-60
2022/01/17 05:41:24;;;;;;;16.90;3.25;;;6.40;99.90;;;;;;4989712;28;20042;-60
2022/01/17 05:43:49;;;;;;;17.50;3.67;;;6.50;99.90;;;;;;4989587;28;20057;-60
2022/01/17 05:46:15;;;;;;;16.13;4.45;;;6.50;99.90;;;;;;4989560;28;20412;-61
2022/01/17 05:48:41;;;;;;;19.50;4.20;;;6.50;99.90;;;;;;4989230;28;20092;-60
2022/01/17 05:51:07;;;;;;;29.85;5.53;;;6.50;99.90;;;;;;4989567;28;20038;-61
2022/01/17 05:53:32;;;;;;;18.58;3.05;;;6.50;99.90;;;;;;4988925;28;20408;-60
2022/01/17 05:55:58;;;;;;;20.42;4.60;;;6.60;99.90;;;;;;4989652;28;20381;-60
2022/01/17 05:58:24;;;;;;;24.90;4.70;;;6.50;99.90;;;;;;4989306;28;20117;-61
2022/01/17 06:00:50;;;;;;;22.90;4.15;;;6.50;99.90;;;;;;4989503;28;20050;-61
2022/01/17 06:03:15;;;;;;;20.60;3.85;;;6.50;99.90;;;;;;4989042;28;20081;-60
2022/01/17 06:05:41;;;;;;;19.17;4.45;;;6.50;99.90;;;;;;4989297;28;20044;-60
2022/01/17 06:08:07;;;;;;;19.95;3.47;;;6.60;99.90;;;;;;4988763;28;20117;-61
2022/01/17 06:10:33;;;;;;;19.85;4.40;;;6.50;99.90;;;;;;4991282;28;20045;-61
2022/01/17 06:13:01;;;;;;;21.20;4.30;;;6.60;99.90;;;;;;4992524;28;20042;-60
2022/01/17 06:15:27;;;;;;;19.95;4.13;;;6.60;99.90;;;;;;4992465;28;20042;-60
2022/01/17 06:17:53;;;;;;;22.90;6.25;;;6.50;99.90;;;;;;4992187;28;20041;-61
2022/01/17 06:20:18;;;;;;;22.70;5.10;;;6.50;99.90;;;;;;4992518;28;20042;-60
2022/01/17 06:22:44;;;;;;;17.90;3.70;;;6.50;99.90;;;;;;4992664;28;20053;-62
2022/01/17 06:25:10;;;;;;;22.33;4.00;;;6.60;99.90;;;;;;4992343;28;20038;-60
2022/01/17 06:27:36;;;;;;;21.88;4.78;;;6.50;99.90;;;;;;4992159;28;20438;-61
2022/01/17 06:30:03;;;;;;;23.52;4.38;;;6.50;99.90;;;;;;4992257;28;20039;-60
2022/01/17 06:32:30;;;;;;;25.15;5.07;;;6.50;99.90;;;;;;4990768;28;20098;-61
2022/01/17 06:34:56;;;;;;;32.67;5.35;;;6.40;99.90;;;;;;4992063;28;20039;-60
2022/01/17 06:37:22;;;;;;;23.77;4.13;;;6.40;99.90;;;;;;4992391;28;20041;-61
2022/01/17 06:39:48;;;;;;;15.90;3.88;;;6.40;99.90;;;;;;4992132;28;20052;-60
2022/01/17 06:42:13;;;;;;;26.58;4.40;;;6.50;99.90;;;;;;4992060;28;20395;-60
2022/01/17 06:44:39;;;;;;;20.20;4.50;;;6.40;99.90;;;;;;4992039;28;20046;-60
2022/01/17 06:47:05;;;;;;;34.60;5.28;;;6.50;99.90;;;;;;4992060;28;20043;-60
2022/01/17 06:49:30;;;;;;;23.17;4.63;;;6.50;99.90;;;;;;4991653;28;20400;-61
2022/01/17 06:51:56;;;;;;;29.23;5.68;;;6.50;99.90;;;;;;4991606;28;20038;-60
2022/01/17 06:54:22;;;;;;;34.10;5.82;;;6.50;99.90;;;;;;4991493;28;20055;-60
2022/01/17 06:56:48;;;;;;;29.05;5.47;;;6.40;99.90;;;;;;4991942;28;20046;-61
2022/01/17 06:59:14;;;;;;;26.20;4.32;;;6.50;99.90;;;;;;4991674;28;20043;-61
2022/01/17 07:01:41;;;;;;;24.38;4.25;;;6.50;99.90;;;;;;4991655;28;20042;-60
2022/01/17 07:04:08;;;;;;;30.77;5.72;;;6.50;99.90;;;;;;4991538;28;20408;-60
2022/01/17 07:06:34;;;;;;;29.23;4.18;;;6.60;99.90;;;;;;4991424;28;20130;-60
2022/01/17 07:09:01;;;;;;;32.42;5.72;;;6.60;99.90;;;;;;4991745;28;20030;-60
2022/01/17 07:11:26;;;;;;;32.05;5.45;;;6.60;99.90;;;;;;4991587;28;20121;-62
2022/01/17 07:13:53;;;;;;;28.58;4.28;;;6.60;99.90;;;;;;4991888;28;20126;-60
2022/01/17 07:16:19;;;;;;;32.85;6.50;;;6.60;99.90;;;;;;4991449;28;20108;-60
2022/01/17 07:18:45;;;;;;;33.83;5.28;;;6.60;99.90;;;;;;4991725;28;20082;-60
2022/01/17 07:21:10;;;;;;;31.30;4.38;;;6.60;99.90;;;;;;4990999;28;20081;-61
2022/01/17 07:23:36;;;;;;;30.35;4.43;;;6.60;99.90;;;;;;4991585;28;20071;-60
2022/01/17 07:26:03;;;;;;;23.00;4.43;;;6.70;99.90;;;;;;4991358;28;20462;-62
2022/01/17 07:28:29;;;;;;;32.30;6.38;;;6.70;99.90;;;;;;4991374;28;20406;-61
2022/01/17 07:30:55;;;;;;;34.10;4.45;;;6.70;99.90;;;;;;4991046;28;20042;-61
2022/01/17 07:33:22;;;;;;;25.58;4.65;;;6.70;99.90;;;;;;4990947;28;20373;-61
2022/01/17 07:35:48;;;;;;;34.88;5.65;;;6.80;99.90;;;;;;4990969;28;20049;-61
2022/01/17 07:38:15;;;;;;;35.95;5.70;;;6.70;99.90;;;;;;4990877;28;20035;-61
2022/01/17 07:40:43;;;;;;;32.95;4.82;;;6.70;99.90;;;;;;4990996;28;20035;-60
2022/01/17 07:43:12;;;;;;;30.17;4.50;;;6.70;99.90;;;;;;4991153;28;20046;-60
2022/01/17 07:45:46;;;;;;;31.75;4.75;;;6.80;99.90;;;;;;4990972;28;20038;-61
2022/01/17 07:48:43;;;;;;;21.52;4.57;;;6.80;99.90;;;;;;4990993;28;20066;-61
2022/01/17 07:50:57;;;;;;;29.90;4.78;;;6.80;99.90;;;;;;4991391;28;20050;-61
2022/01/17 07:53:23;;;;;;;28.77;4.50;;;6.90;99.90;;;;;;4991128;28;20062;-61
2022/01/17 07:55:49;;;;;;;35.15;6.25;;;7.00;99.90;;;;;;4990936;28;20058;-60
2022/01/17 07:58:14;;;;;;;39.60;5.82;;;7.00;99.90;;;;;;4990756;28;20035;-60
2022/01/17 08:00:40;;;;;;;26.88;5.05;;;6.90;99.90;;;;;;4991380;28;20384;-61
2022/01/17 08:03:06;;;;;;;30.60;5.72;;;7.00;99.90;;;;;;4990949;28;20042;-61
2022/01/17 08:05:33;;;;;;;39.08;6.38;;;7.10;99.90;;;;;;4990607;28;20050;-61
2022/01/17 08:08:00;;;;;;;29.52;5.30;;;7.10;99.90;;;;;;4990700;28;20042;-61
2022/01/17 08:10:26;;;;;;;33.63;4.50;;;7.10;99.90;;;;;;4990574;28;20400;-62
2022/01/17 08:12:52;;;;;;;26.30;4.30;;;7.10;99.90;;;;;;4990457;28;20113;-63
2022/01/17 08:15:18;;;;;;;36.85;5.60;;;7.10;99.90;;;;;;4990366;28;20044;-61
2022/01/17 08:17:45;;;;;;;30.95;5.53;;;7.30;99.90;;;;;;4990157;28;20042;-61
2022/01/17 08:20:11;;;;;;;38.25;5.75;;;7.20;99.90;;;;;;4990455;28;20043;-62
2022/01/17 08:22:37;;;;;;;28.83;5.07;;;7.30;99.90;;;;;;4990250;28;20482;-62
2022/01/17 08:25:04;;;;;;;47.25;6.90;;;7.30;99.90;;;;;;4990373;28;20091;-61
2022/01/17 08:27:30;;;;;;;26.38;5.32;;;7.40;99.90;;;;;;4990128;28;20042;-62
2022/01/17 08:29:57;;;;;;;36.22;6.80;;;7.40;99.90;;;;;;4990120;28;20042;-62
2022/01/17 08:32:23;;;;;;;29.15;5.43;;;7.40;99.90;;;;;;4989425;28;20572;-61
2022/01/17 08:34:48;;;;;;;33.33;5.32;;;7.50;99.90;;;;;;4990345;28;20178;-61
2022/01/17 08:37:14;;;;;;;33.47;5.32;;;7.50;99.90;;;;;;4989256;28;20030;-61
2022/01/17 08:39:40;;;;;;;37.33;6.18;;;7.50;99.90;;;;;;4990094;28;20050;-62
2022/01/17 08:42:10;;;;;;;35.60;6.47;;;7.60;99.90;;;;;;4989902;28;20117;-62
2022/01/17 08:44:37;;;;;;;43.38;6.95;;;7.70;99.90;;;;;;4990312;28;20041;-62
2022/01/17 08:47:03;;;;;;;27.13;5.30;;;7.70;99.90;;;;;;4990161;28;20074;-61
2022/01/17 08:49:29;;;;;;;32.60;6.55;;;7.70;99.90;;;;;;4990044;28;20039;-61
2022/01/17 08:51:55;;;;;;;37.05;7.00;;;7.70;99.90;;;;;;4989922;28;20397;-62
2022/01/17 08:54:20;;;;;;;35.42;4.57;;;7.80;99.90;;;;;;4989751;28;20086;-62
2022/01/17 08:56:46;;;;;;;35.80;6.07;;;7.90;99.90;;;;;;4990353;28;20039;-61
2022/01/17 08:59:12;;;;;;;29.42;4.30;;;7.90;99.90;;;;;;4990202;28;20047;-61
2022/01/17 09:01:38;;;;;;;39.53;6.00;;;7.90;99.90;;;;;;4990066;28;20042;-62
2022/01/17 09:04:04;;;;;;;38.78;6.55;;;8.00;99.90;;;;;;4989957;28;20038;-62
2022/01/17 09:06:30;;;;;;;24.83;4.50;;;8.00;99.90;;;;;;4989790;28;20042;-62
2022/01/17 09:08:56;;;;;;;35.20;5.40;;;8.10;99.90;;;;;;4989722;28;20053;-61
2022/01/17 09:11:21;;;;;;;29.55;5.53;;;8.10;99.90;;;;;;4989498;28;20433;-61
2022/01/17 09:13:50;;;;;;;38.60;7.20;;;8.10;99.90;;;;;;4989795;28;20441;-62
2022/01/17 09:16:16;;;;;;;39.40;7.07;;;8.10;99.90;;;;;;4989780;28;20046;-61
2022/01/17 09:18:42;;;;;;;38.22;5.82;;;8.20;99.90;;;;;;4989660;28;20092;-61
2022/01/17 09:21:07;;;;;;;43.47;6.95;;;8.30;99.90;;;;;;4989681;28;20095;-62
2022/01/17 09:23:33;;;;;;;33.85;6.53;;;8.30;99.90;;;;;;4989597;28;20096;-61
2022/01/17 09:25:59;;;;;;;32.08;5.70;;;8.30;99.90;;;;;;4989501;28;20042;-62
2022/01/17 09:28:24;;;;;;;31.67;5.70;;;8.40;99.90;;;;;;4989569;28;20049;-61
2022/01/17 09:30:51;;;;;;;35.92;6.82;;;8.40;99.90;;;;;;4989655;28;20042;-62
2022/01/17 09:33:16;;;;;;;30.70;5.05;;;8.40;99.90;;;;;;4989368;28;20492;-62
2022/01/17 09:35:42;;;;;;;30.85;6.03;;;8.40;99.90;;;;;;4989506;28;20034;-62
2022/01/17 09:38:08;;;;;;;33.13;5.90;;;8.50;99.90;;;;;;4989333;28;20045;-62
2022/01/17 09:40:34;;;;;;;30.20;5.90;;;8.40;99.90;;;;;;4989267;28;20117;-62
2022/01/17 09:43:02;;;;;;;37.45;7.03;;;8.50;99.90;;;;;;4989494;28;20054;-62
2022/01/17 09:45:29;;;;;;;42.80;6.18;;;8.60;99.90;;;;;;4992711;28;20050;-62
2022/01/17 09:47:54;;;;;;;40.35;6.68;;;8.60;99.90;;;;;;4992749;28;20095;-62
2022/01/17 09:50:31;;;;;;;40.28;6.53;;;8.60;99.90;;;;;;4992609;28;20042;-61
2022/01/17 09:52:59;;;;;;;41.15;6.80;;;8.60;99.90;;;;;;4992399;28;20138;-63
2022/01/17 09:55:27;;;;;;;38.85;6.38;;;8.70;99.90;;;;;;4992792;28;20039;-62
2022/01/17 09:58:05;;;;;;;31.08;6.53;;;8.80;99.90;;;;;;4992592;28;20484;-62
2022/01/17 10:00:35;;;;;;;37.15;7.05;;;8.80;99.90;;;;;;4992393;28;20109;-62
2022/01/17 10:03:06;;;;;;;36.83;6.88;;;8.80;99.90;;;;;;4993211;28;20057;-62
2022/01/17 10:05:34;;;;;;;35.28;7.88;;;8.80;99.90;;;;;;4991333;28;20050;-62
2022/01/17 10:08:11;;;;;;;44.08;6.78;;;8.90;99.90;;;;;;4992412;28;20042;-62
2022/01/17 10:10:58;;;;;;;37.47;8.05;;;8.90;99.90;;;;;;4992586;28;20049;-61
2022/01/17 10:13:37;;;;;;;43.00;7.28;;;9.00;99.90;;;;;;4992538;28;20581;-63
2022/01/17 10:16:14;;;;;;;36.28;8.30;;;9.00;99.90;;;;;;4992318;28;20101;-62
2022/01/17 10:19:04;;;;;;;36.65;6.75;;;9.00;99.90;;;;;;4992446;28;20054;-63
2022/01/17 10:21:40;;;;;;;45.38;7.93;;;9.00;99.90;;;;;;4992199;28;20042;-62
2022/01/17 10:35:08;;;;;;;51.28;7.78;;;9.30;99.90;;;;;;4991997;28;20139;-62
2022/01/17 10:37:34;;;;;;;41.10;8.57;;;9.20;99.90;;;;;;4992168;28;20042;-61
2022/01/17 10:40:15;;;;;;;44.83;8.35;;;9.10;99.90;;;;;;4992223;28;20077;-62
2022/01/17 10:42:48;;;;;;;46.45;8.20;;;9.10;99.90;;;;;;4991896;28;20437;-62
2022/01/17 10:45:16;;;;;;;45.35;8.02;;;9.00;99.90;;;;;;4991923;28;20035;-62
2022/01/17 10:47:45;;;;;;;36.38;8.57;;;9.10;99.90;;;;;;4992081;28;20054;-63
2022/01/17 10:50:27;;;;;;;40.90;7.85;;;9.20;99.90;;;;;;4991860;28;20377;-62
2022/01/17 10:52:56;;;;;;;42.35;8.88;;;9.10;99.90;;;;;;4991603;28;20049;-61
2022/01/17 10:55:27;;;;;;;47.88;6.15;;;9.10;99.90;;;;;;4991040;28;20038;-61
2022/01/17 10:57:59;;;;;;;48.33;8.73;;;9.20;99.90;;;;;;4991441;28;20508;-62
2022/01/17 11:00:31;;;;;;;41.10;9.07;;;9.20;99.90;;;;;;4991575;28;20125;-61
2022/01/17 11:03:00;;;;;;;41.00;7.53;;;9.50;99.90;;;;;;4991473;28;20049;-62
2022/01/17 11:05:28;;;;;;;37.85;7.85;;;9.60;99.90;;;;;;4991565;28;20404;-62
2022/01/17 11:07:58;;;;;;;47.40;8.93;;;9.60;99.90;;;;;;4991363;28;20046;-62
2022/01/17 11:10:28;;;;;;;39.38;7.68;;;9.70;99.90;;;;;;4991334;28;20334;-62
2022/01/17 11:12:56;;;;;;;45.53;9.05;;;9.70;99.90;;;;;;4991636;28;20053;-62
2022/01/17 11:15:24;;;;;;;49.03;9.77;;;9.60;99.90;;;;;;4991645;28;20069;-62
2022/01/17 11:17:56;;;;;;;55.42;9.02;;;9.60;99.90;;;;;;4991298;28;20042;-63
2022/01/17 11:20:26;;;;;;;42.83;7.70;;;9.70;99.90;;;;;;4991266;28;20111;-62
2022/01/17 11:22:55;;;;;;;47.78;8.65;;;9.70;99.90;;;;;;4991592;28;20065;-62
2022/01/17 11:25:24;;;;;;;44.80;8.32;;;9.70;99.90;;;;;;4991257;28;20136;-62
2022/01/17 11:27:51;;;;;;;50.17;8.93;;;9.80;99.90;;;;;;4991115;28;20125;-62
2022/01/17 11:30:17;;;;;;;43.47;7.85;;;9.70;99.90;;;;;;4991184;28;20065;-62
2022/01/17 11:32:48;;;;;;;48.70;7.65;;;9.80;99.90;;;;;;4991049;28;20038;-62
2022/01/17 11:35:16;;;;;;;62.00;9.23;;;9.80;99.90;;;;;;4990931;28;20038;-62
2022/01/17 11:37:46;;;;;;;61.30;9.68;;;9.80;99.90;;;;;;4990981;28;20048;-61
2022/01/17 11:40:14;;;;;;;59.20;9.57;;;9.70;99.90;;;;;;4991478;28;20054;-62
2022/01/17 11:42:47;;;;;;;58.75;9.43;;;9.70;99.90;;;;;;4991151;28;20103;-62
2022/01/17 11:45:21;;;;;;;53.05;10.27;;;9.60;99.90;;;;;;4991020;28;20135;-62
2022/01/17 11:47:57;;;;;;;42.85;8.70;;;9.60;99.90;;;;;;4990709;28;20137;-61
2022/01/17 11:50:30;;;;;;;53.85;9.57;;;9.50;99.90;;;;;;4991058;28;20082;-61
2022/01/17 11:53:11;;;;;;;45.15;9.23;;;9.50;99.90;;;;;;4990755;28;20070;-61
2022/01/17 11:58:43;;;;;;;53.75;10.00;;;9.60;99.90;;;;;;4990789;28;20046;-61
2022/01/17 12:01:10;;;;;;;56.05;8.82;;;9.60;99.90;;;;;;4990774;28;20065;-61
2022/01/17 12:03:53;;;;;;;47.42;8.48;;;9.60;99.90;;;;;;4990673;28;20038;-61
2022/01/17 12:06:32;;;;;;;50.10;9.50;;;9.70;99.90;;;;;;4990418;28;20046;-61
2022/01/17 12:09:24;;;;;;;48.50;9.50;;;9.80;99.90;;;;;;4990005;28;20122;-61
2022/01/17 12:11:56;;;;;;;56.03;10.02;;;9.90;99.90;;;;;;4990816;28;20046;-61
2022/01/17 12:14:33;;;;;;;54.40;9.55;;;10.00;99.90;;;;;;4990430;28;20034;-61
2022/01/17 12:17:21;;;;;;;46.80;8.63;;;10.00;99.90;;;;;;4990443;28;20099;-61
2022/01/17 12:20:09;;;;;;;53.13;10.05;;;10.00;99.90;;;;;;4990707;28;20057;-61
2022/01/17 12:22:43;;;;;;;53.17;8.45;;;10.00;99.90;;;;;;4990698;28;20069;-61
2022/01/17 12:25:23;;;;;;;48.78;8.77;;;9.90;99.90;;;;;;4990348;28;20046;-62
2022/01/17 12:28:04;;;;;;;47.30;7.32;;;9.80;99.90;;;;;;4990692;28;20062;-60
2022/01/17 12:30:43;;;;;;;58.75;9.57;;;9.80;99.90;;;;;;4990590;28;20400;-60
2022/01/17 12:33:28;;;;;;;47.28;9.40;;;9.70;99.90;;;;;;4990471;28;20073;-60
2022/01/17 12:35:58;;;;;;;52.20;9.02;;;9.60;99.90;;;;;;4990625;28;20034;-61
2022/01/17 12:38:31;;;;;;;53.00;9.57;;;9.60;99.90;;;;;;4990040;28;20493;-61
2022/01/17 12:40:58;;;;;;;50.33;9.82;;;9.50;99.90;;;;;;4990265;28;20034;-61
2022/01/17 12:43:32;;;;;;;42.03;7.32;;;9.50;99.90;;;;;;4990049;28;20046;-61
2022/01/17 12:46:07;;;;;;;43.83;9.82;;;9.50;99.90;;;;;;4990003;28;20041;-61
2022/01/17 12:48:35;;;;;;;54.92;10.07;;;9.50;99.90;;;;;;4990204;28;20365;-61
2022/01/17 12:51:05;;;;;;;57.55;9.73;;;9.50;99.90;;;;;;4990129;28;20091;-62
2022/01/17 12:53:31;;;;;;;43.55;7.85;;;9.50;99.90;;;;;;4989674;28;20527;-61
2022/01/17 12:56:07;;;;;;;42.45;8.05;;;9.50;99.90;;;;;;4989830;28;20042;-61
2022/01/17 12:58:38;;;;;;;41.67;8.25;;;9.50;99.90;;;;;;4989766;28;20088;-61
2022/01/17 13:01:05;;;;;;;39.00;8.85;;;9.50;99.90;;;;;;4990270;28;20050;-62
2022/01/17 13:03:33;;;;;;;44.78;7.38;;;9.50;99.90;;;;;;4990139;28;20096;-62
2022/01/17 13:06:01;;;;;;;49.90;9.27;;;9.40;99.90;;;;;;4989985;28;20069;-61
2022/01/17 13:08:27;;;;;;;57.05;9.15;;;9.40;99.90;;;;;;4987785;28;20377;-61
2022/01/17 13:10:55;;;;;;;55.20;9.00;;;9.40;99.90;;;;;;4989927;28;20480;-62
2022/01/17 13:13:21;;;;;;;64.63;10.70;;;9.40;99.90;;;;;;4989890;28;20384;-61
2022/01/17 13:16:00;;;;;;;40.20;8.00;;;9.40;99.90;;;;;;4989867;28;20041;-62
2022/01/17 13:18:27;;;;;;;53.20;12.57;;;9.30;99.90;;;;;;4989444;28;20042;-61